Bei Facebook empfehlenBei Twitter postenGoogle plusPinterest

Das Wetter im Erzgebirge am 18.03.2017

Wetter und Klima am 18.03.2017 Holzhau im Erzgebirge (630m ü.NN)
Letzte gemessene Temperatur und Uhrzeit der Messung23:45:00 Uhr1.60 °C
Temperatur (Maximum / Höchstwert) und Uhrzeit der Messung15:45:00 Uhr6.10 °C
Temperatur (Minimum / Tiefstwert) und Uhrzeit der Messung04:15:000.10 °C
Errechneter Absolutwert der Temperaturschwankungen zwischen Tmin und Tmax des Tages6.00 K
Errechnete Tagesmitteltemperatur2.70625 °C
Gesamt - Niederschlag des Tages (in flüssiger Form)11.92 Liter / m²
Luftdruck (Maximum / Höchstwert) und Zeitpunkt der Messung00:00:00 Uhr1005.60 hPa
Luftdruck (Minimum / Tiefstwert) und Zeitpunkt der Messung13:15:00 Uhr996.50 hPa
Errechneter Absolutwert der Luftdruckschwankungen des Tages9.10 hPa
Höchste gemessene Windgeschwindigkeit und Uhrzeit der Messung10:30:00 Uhr24.12 km/h
Errechnete Windhäufigkeit in Relation zu den Messwerten des Tages70.83333 %
Niedrigste Windkühle (Windchill) und Zeitpunkt der Messung07:30:00 Uhr-2.20 °C
Taupunkt (Maximum / Höchstwert) und Uhrzeit der Messung15:30:00 Uhr5.10 °C
Taupunkt (Minimum / Tiefstwert) und Uhrzeit der Messung04:15:00-1.00 °C
Anzahl der automatisch eingelesenen Messwerte 96

Detaillierte Wetter- und Klima- Messwerte für den 18.03.2017 in Holzhau im Erzgebirge (630m ü.NN)
ZeitTemperaturLuftdruckRel. LuftfeuchteWindWindrichtungWindchillTaupunktNiederschlag l/m²
23:45:001.60 °C1003.90 hPa93.00 %0.60 °C11.92
23:30:001.80 °C1003.80 hPa93.00 %0.80 °C11.92
23:15:001.80 °C1003.50 hPa93.00 %3.60 km/hWNW1.80 °C0.80 °C11.92
23:00:001.70 °C1003.50 hPa93.00 %0.72 km/hWNW1.70 °C0.70 °C11.92
22:45:001.60 °C1003.40 hPa93.00 %0.60 °C11.92
22:30:001.80 °C1003.20 hPa92.00 %0.60 °C11.92
22:15:001.90 °C1003.30 hPa92.00 %0.70 °C11.92
22:00:001.90 °C1003.10 hPa92.00 %1.80 km/hWNW1.90 °C0.70 °C11.92
21:45:002.10 °C1002.80 hPa92.00 %0.90 °C11.92
21:30:002.10 °C1003.00 hPa91.00 %0.80 °C11.92
21:15:002.30 °C1002.70 hPa91.00 %1.00 °C11.92
21:00:002.30 °C1002.50 hPa90.00 %0.80 °C11.92
20:45:002.40 °C1002.30 hPa90.00 %7.20 km/hWNW0.30 °C0.90 °C11.92
20:30:002.60 °C1002.00 hPa90.00 %1.10 °C11.92
20:15:002.70 °C1001.80 hPa90.00 %2.52 km/hNNW2.70 °C1.20 °C11.92
20:00:002.80 °C1001.60 hPa90.00 %4.68 km/hNNW2.80 °C1.30 °C11.92
19:45:002.80 °C1001.10 hPa90.00 %2.88 km/hN2.80 °C1.30 °C11.92
19:30:002.80 °C1001.10 hPa90.00 %1.44 km/hW2.80 °C1.30 °C11.92
19:15:002.90 °C1000.80 hPa90.00 %2.16 km/hWNW2.90 °C1.40 °C11.92
19:00:003.10 °C1000.60 hPa89.00 %6.48 km/hNNW1.40 °C1.50 °C11.92
18:45:003.30 °C1000.30 hPa89.00 %5.04 km/hWNW2.10 °C1.70 °C11.92
18:30:003.40 °C1000.30 hPa90.00 %5.04 km/hNW2.30 °C1.90 °C11.92
18:15:003.50 °C1000.00 hPa90.00 %2.00 °C11.92
18:00:003.80 °C999.70 hPa89.00 %0.36 km/hWSW3.80 °C2.20 °C11.92
17:45:004.10 °C999.60 hPa90.00 %12.60 km/hNNW1.10 °C2.60 °C11.92
17:30:004.50 °C999.50 hPa92.00 %2.52 km/hNNW4.50 °C3.30 °C11.92
17:15:004.70 °C999.20 hPa93.00 %1.80 km/hNW4.70 °C3.70 °C11.92
17:00:004.90 °C998.90 hPa94.00 %7.56 km/hNNW3.10 °C4.00 °C11.92
16:45:004.60 °C998.70 hPa94.00 %1.44 km/hWNW4.60 °C3.70 °C11.92
16:30:004.50 °C998.50 hPa93.00 %4.32 km/hW4.50 °C3.50 °C11.92
16:15:004.80 °C998.40 hPa92.00 %3.96 km/hNW4.80 °C3.60 °C11.92
16:00:005.50 °C998.20 hPa92.00 %11.16 km/hNW3.00 °C4.30 °C11.40
15:45:006.10 °C997.70 hPa92.00 %2.88 km/hW6.10 °C4.90 °C9.33
15:30:006.10 °C997.40 hPa93.00 %2.52 km/hSW6.10 °C5.10 °C9.33
15:15:005.90 °C996.90 hPa93.00 %5.76 km/hSW4.80 °C4.90 °C9.33
15:00:005.80 °C997.00 hPa93.00 %6.84 km/hW4.40 °C4.80 °C9.33
14:45:005.50 °C997.10 hPa93.00 %7.56 km/hW3.80 °C4.50 °C9.33
14:30:005.80 °C997.10 hPa92.00 %6.84 km/hNW4.40 °C4.60 °C8.81
14:15:005.90 °C997.00 hPa91.00 %9.00 km/hWNW4.00 °C4.50 °C8.81
14:00:005.60 °C996.90 hPa93.00 %12.24 km/hWSW2.90 °C4.60 °C8.81
13:45:005.40 °C996.70 hPa93.00 %6.12 km/hW4.10 °C4.40 °C8.81
13:30:005.30 °C996.60 hPa93.00 %8.28 km/hW3.40 °C4.30 °C8.81
13:15:005.30 °C996.50 hPa93.00 %8.64 km/hWNW3.30 °C4.30 °C8.81
13:00:005.30 °C996.60 hPa93.00 %19.44 km/hWSW1.50 °C4.30 °C8.81
12:45:005.00 °C996.60 hPa93.00 %14.76 km/hW1.80 °C4.00 °C8.81
12:30:004.90 °C996.80 hPa93.00 %6.12 km/hWSW3.60 °C3.90 °C8.81
12:15:004.70 °C996.80 hPa94.00 %1.80 km/hWSW4.70 °C3.80 °C8.81
12:00:004.50 °C996.60 hPa94.00 %9.00 km/hW2.30 °C3.60 °C8.81
11:45:004.40 °C996.70 hPa94.00 %9.36 km/hWSW2.10 °C3.50 °C8.81
11:30:004.30 °C996.80 hPa94.00 %7.20 km/hWNW2.50 °C3.40 °C8.81
11:15:004.20 °C996.90 hPa94.00 %8.64 km/hNW2.00 °C3.30 °C8.81
11:00:004.10 °C997.00 hPa94.00 %5.04 km/hWSW3.00 °C3.20 °C8.29
10:45:003.80 °C996.90 hPa93.00 %10.08 km/hW1.20 °C2.80 °C8.29
10:30:003.60 °C997.00 hPa93.00 %24.12 km/hW-1.20 °C2.60 °C8.29
10:15:003.30 °C997.10 hPa94.00 %18.72 km/hW-0.90 °C2.40 °C8.29
10:00:003.20 °C997.00 hPa94.00 %2.88 km/hW3.20 °C2.30 °C8.29
09:45:003.10 °C997.30 hPa93.00 %6.12 km/hW1.50 °C2.10 °C8.29
09:30:003.10 °C997.20 hPa94.00 %4.32 km/hW3.10 °C2.20 °C8.29
09:15:002.90 °C997.40 hPa94.00 %13.32 km/hNW-0.50 °C2.00 °C7.77
09:00:002.90 °C997.40 hPa94.00 %7.20 km/hWNW0.90 °C2.00 °C7.77
08:45:002.60 °C997.40 hPa94.00 %1.70 °C7.26
08:30:002.40 °C997.60 hPa94.00 %2.52 km/hW2.40 °C1.50 °C7.26
08:15:001.90 °C997.60 hPa94.00 %6.12 km/hW0.10 °C1.00 °C6.74
08:00:001.60 °C997.80 hPa94.00 %6.12 km/hSW-0.20 °C0.70 °C6.22
07:45:001.30 °C997.80 hPa94.00 %4.32 km/hW1.30 °C0.40 °C5.70
07:30:001.00 °C998.10 hPa94.00 %10.44 km/hWNW-2.20 °C0.10 °C5.18
07:15:000.90 °C998.10 hPa94.00 %4.32 km/hWNW0.90 °C0.00 °C4.67
07:00:001.10 °C998.20 hPa94.00 %2.16 km/hNNW1.10 °C0.20 °C4.67
06:45:001.10 °C998.20 hPa94.00 %0.72 km/hW1.10 °C0.20 °C4.15
06:30:000.90 °C998.20 hPa94.00 %6.12 km/hWNW-1.00 °C0.00 °C3.63
06:15:000.70 °C998.40 hPa94.00 %6.12 km/hSW-1.30 °C-0.20 °C3.11
06:00:000.50 °C998.50 hPa93.00 %6.48 km/hW-1.60 °C-0.50 °C2.59
05:45:000.40 °C998.90 hPa93.00 %4.68 km/hW0.40 °C-0.60 °C2.08
05:30:000.60 °C999.20 hPa93.00 %1.08 km/hWNW0.60 °C-0.40 °C2.08
05:15:000.60 °C999.60 hPa93.00 %-0.40 °C1.56
05:00:000.40 °C999.80 hPa93.00 %7.56 km/hSSW-2.10 °C-0.60 °C1.04
04:45:000.50 °C1000.10 hPa93.00 %-0.50 °C 
04:30:000.40 °C1000.20 hPa93.00 %7.20 km/hSSW-2.00 °C-0.60 °C 
04:15:000.10 °C1000.70 hPa92.00 %-1.00 °C 
04:00:000.10 °C1000.90 hPa92.00 %-1.00 °C 
03:45:000.10 °C1001.10 hPa92.00 %-1.00 °C 
03:30:000.10 °C1001.40 hPa92.00 %-1.00 °C 
03:15:000.20 °C1001.90 hPa92.00 %-0.90 °C 
03:00:000.40 °C1002.60 hPa91.00 %-0.90 °C 
02:45:000.80 °C1002.80 hPa91.00 %-0.50 °C 
02:30:001.20 °C1003.10 hPa91.00 %3.60 km/hS1.20 °C-0.10 °C 
02:15:001.60 °C1003.40 hPa91.00 %1.80 km/hWNW1.60 °C0.30 °C 
02:00:001.60 °C1003.60 hPa92.00 %3.96 km/hSW1.60 °C0.40 °C 
01:45:001.40 °C1003.60 hPa92.00 %0.20 °C 
01:30:001.20 °C1004.20 hPa93.00 %3.60 km/hSW1.20 °C0.20 °C 
01:15:000.90 °C1004.30 hPa92.00 %-0.20 °C 
01:00:000.90 °C1004.50 hPa92.00 %-0.20 °C 
00:45:000.90 °C1005.00 hPa92.00 %-0.20 °C 
00:30:000.90 °C1005.20 hPa92.00 %-0.20 °C 
00:15:001.00 °C1005.30 hPa92.00 %-0.10 °C 
00:00:000.90 °C1005.60 hPa92.00 %-0.20 °C 

Permanenter Link zu dieser Seite: Wetter im Erzgebirge am 18.03.2017
Performance-Info: Die Erstellung der Seite / Statistik(en) / Tabelle(n) erforderte 5 Datenbankserver-Abfrage(n) und dauerte 101 Millisekunden. (Dieser Messwert ist von der Gesamt-Auslastung des Servers abhängig.)
Erzgebirge - Wetter | Erzgebirge - Wetter (Mobilgeräte) | Komplette Klimadatenbank